Unity House, Pennsylvania
Current Conditions -  °F | °C
As of 1:18 PM on Thursday 23 Oct 2014 (Local Time) from KMPO Reporting Station
Overcast Overcast  
Wind Chill: 37°   Ceiling: 600
Heat Index: 44°   Visibility: 10mi
Dew Point: 41°   Wind: 14mph
Humidity: 89%   Direction: 330°NNW
Pressure: 29.79"   Gusts: 28mph
Location:  41.15°N, 75.03°W
Report Text: KMPO 231718Z AUTO 33012G24KT 10SM OVC006 07/05 A2979 RMK AO2 RAE16 T00670050 TSNO PNO $
Loading
Personal Weather Stations






























Interactive Weather Map
Tropical Storm Tracking
New forecast layout! Learn more

10-Day Weather Forecast

Advertisements
Track Severe Weather on mobile